createdAt,value
2023-03-02T00:01:34.216Z,20.67
2023-03-02T00:04:02.748Z,21.42
2023-03-02T00:06:31.516Z,20.67
2023-03-02T00:09:00.651Z,20.70
2023-03-02T00:11:30.088Z,19.52
2023-03-02T00:13:56.975Z,20.70
2023-03-02T00:16:24.030Z,21.23
2023-03-02T00:18:50.897Z,20.75
2023-03-02T00:21:17.712Z,21.35
2023-03-02T00:23:44.890Z,21.92
2023-03-02T00:26:11.767Z,21.08
2023-03-02T00:28:39.395Z,21.77
2023-03-02T00:31:07.202Z,21.23
2023-03-02T00:33:34.696Z,20.77
2023-03-02T00:36:02.558Z,21.17
2023-03-02T00:38:29.620Z,21.83
2023-03-02T00:40:56.616Z,22.13
2023-03-02T00:43:27.854Z,23.17
2023-03-02T00:45:55.314Z,20.98
2023-03-02T00:48:22.817Z,22.73
2023-03-02T00:50:50.899Z,22.25
2023-03-02T00:53:18.079Z,22.63
2023-03-02T00:55:54.909Z,24.40
2023-03-02T00:58:23.112Z,21.25
2023-03-02T01:00:50.628Z,21.42
2023-03-02T01:03:17.811Z,21.80
2023-03-02T01:05:45.410Z,22.45
2023-03-02T01:08:12.843Z,23.27
2023-03-02T01:10:40.136Z,21.85
2023-03-02T01:13:07.649Z,22.38
2023-03-02T01:15:36.864Z,20.95
2023-03-02T01:18:03.877Z,23.38
2023-03-02T01:20:31.187Z,22.02
2023-03-02T01:22:58.044Z,23.52
2023-03-02T01:25:24.974Z,23.58
2023-03-02T01:27:51.977Z,22.85
2023-03-02T01:30:18.838Z,24.27
2023-03-02T01:32:45.785Z,22.00
2023-03-02T01:35:14.104Z,23.23
2023-03-02T01:37:41.131Z,22.48
2023-03-02T01:40:09.407Z,22.13
2023-03-02T01:42:45.483Z,22.70
2023-03-02T01:45:45.894Z,22.45
2023-03-02T01:48:19.486Z,22.17
2023-03-02T01:50:46.897Z,22.90
2023-03-02T01:53:15.818Z,24.02
2023-03-02T01:55:44.175Z,22.95
2023-03-02T01:58:15.708Z,22.58
2023-03-02T02:00:43.584Z,22.30
2023-03-02T02:03:26.370Z,22.75
2023-03-02T02:06:11.949Z,22.55
2023-03-02T02:08:39.603Z,22.80
2023-03-02T02:11:06.752Z,22.95
2023-03-02T02:13:33.621Z,22.92
2023-03-02T02:16:00.995Z,23.15
2023-03-02T02:18:28.280Z,23.65
2023-03-02T02:20:56.246Z,23.98
2023-03-02T02:23:42.701Z,23.65
2023-03-02T02:26:12.409Z,24.92
2023-03-02T02:28:57.765Z,23.20
2023-03-02T02:31:36.516Z,24.00
2023-03-02T02:34:26.930Z,22.42
2023-03-02T02:37:05.348Z,24.33
2023-03-02T02:39:37.352Z,23.77
2023-03-02T02:42:10.369Z,23.30
2023-03-02T02:44:37.393Z,23.75
2023-03-02T02:47:05.926Z,23.55
2023-03-02T02:49:36.693Z,24.85
2023-03-02T02:52:05.394Z,22.98
2023-03-02T02:54:34.276Z,24.60
2023-03-02T02:57:03.230Z,24.35
2023-03-02T02:59:40.010Z,24.15
2023-03-02T03:02:10.150Z,25.63
2023-03-02T03:04:37.106Z,23.80
2023-03-02T03:07:06.339Z,23.50
2023-03-02T03:09:33.622Z,24.77
2023-03-02T03:12:08.686Z,25.00
2023-03-02T03:14:39.333Z,24.02
2023-03-02T03:17:13.526Z,24.98
2023-03-02T03:19:47.739Z,24.90
2023-03-02T03:22:17.397Z,24.52
2023-03-02T03:24:47.141Z,23.35
2023-03-02T03:27:16.353Z,24.73
2023-03-02T03:29:48.290Z,26.10
2023-03-02T03:32:18.688Z,24.20
2023-03-02T03:34:46.959Z,24.65
2023-03-02T03:37:21.143Z,24.35
2023-03-02T03:39:48.752Z,23.73
2023-03-02T03:42:17.377Z,24.20
2023-03-02T03:44:45.406Z,25.58
2023-03-02T03:47:12.697Z,24.27
2023-03-02T03:49:39.936Z,24.42
2023-03-02T03:52:08.286Z,24.63
2023-03-02T03:54:35.348Z,25.20
2023-03-02T03:57:02.308Z,25.98
2023-03-02T03:59:29.313Z,24.13
2023-03-02T04:02:01.645Z,24.80
2023-03-02T04:04:34.842Z,27.25
2023-03-02T04:07:09.377Z,25.15
2023-03-02T04:09:38.145Z,25.80
2023-03-02T04:12:08.311Z,24.23
2023-03-02T04:14:35.966Z,25.83
2023-03-02T04:17:05.415Z,24.10
2023-03-02T04:19:35.506Z,23.98
2023-03-02T04:22:04.258Z,24.83
2023-03-02T04:24:32.492Z,25.48
2023-03-02T04:27:02.183Z,25.27
2023-03-02T04:29:29.863Z,26.33
2023-03-02T04:31:56.942Z,25.02
2023-03-02T04:34:26.477Z,25.58
2023-03-02T04:36:53.747Z,26.00
2023-03-02T04:39:20.887Z,25.52
2023-03-02T04:41:51.549Z,25.85
2023-03-02T04:44:18.961Z,26.63
2023-03-02T04:46:46.709Z,27.48
2023-03-02T04:49:14.900Z,25.65
2023-03-02T04:51:44.050Z,25.02
2023-03-02T04:54:20.362Z,25.58
2023-03-02T04:56:51.547Z,24.65
2023-03-02T04:59:26.121Z,24.25
2023-03-02T05:02:00.352Z,24.75
2023-03-02T05:04:28.274Z,26.38
2023-03-02T05:06:55.182Z,24.65
2023-03-02T05:09:27.205Z,25.90
2023-03-02T05:11:58.551Z,25.58
2023-03-02T05:14:26.191Z,25.00
2023-03-02T05:16:53.596Z,24.77
2023-03-02T05:19:20.455Z,25.67
2023-03-02T05:21:47.540Z,26.17
2023-03-02T05:24:14.968Z,26.65
2023-03-02T05:26:41.821Z,25.50
2023-03-02T05:29:09.383Z,25.42
2023-03-02T05:31:42.833Z,25.23
2023-03-02T05:34:11.914Z,25.67
2023-03-02T05:36:39.017Z,25.85
2023-03-02T05:39:06.953Z,25.42
2023-03-02T05:41:35.748Z,25.30
2023-03-02T05:44:03.890Z,25.33
2023-03-02T05:46:31.154Z,26.45
2023-03-02T05:48:58.377Z,24.60
2023-03-02T05:51:25.349Z,26.05
2023-03-02T05:53:52.184Z,26.67
2023-03-02T05:56:22.355Z,26.73
2023-03-02T05:58:49.189Z,25.08
2023-03-02T06:01:16.088Z,25.42
2023-03-02T06:03:43.626Z,26.23
2023-03-02T06:06:14.184Z,25.70
2023-03-02T06:08:42.864Z,25.77
2023-03-02T06:11:11.212Z,25.23
2023-03-02T06:13:38.516Z,25.67
2023-03-02T06:16:05.838Z,25.45
2023-03-02T06:18:32.875Z,25.98
2023-03-02T06:20:59.991Z,26.15
2023-03-02T06:23:27.032Z,26.63
2023-03-02T06:25:54.112Z,26.67
2023-03-02T06:28:21.944Z,25.90
2023-03-02T06:30:49.636Z,26.65
2023-03-02T06:33:19.421Z,26.55
2023-03-02T06:35:46.548Z,27.23
2023-03-02T06:38:13.597Z,27.52
2023-03-02T06:40:40.404Z,26.25
2023-03-02T06:43:07.313Z,25.70
2023-03-02T06:45:34.361Z,26.52
2023-03-02T06:48:02.042Z,27.35
2023-03-02T06:50:29.216Z,26.23
2023-03-02T06:52:56.951Z,27.17
2023-03-02T06:55:23.879Z,26.00
2023-03-02T06:57:50.845Z,26.58
2023-03-02T07:00:25.832Z,26.60
2023-03-02T07:02:54.346Z,26.60
2023-03-02T07:05:23.536Z,27.30
2023-03-02T07:07:51.331Z,25.45
2023-03-02T07:10:18.676Z,26.80
2023-03-02T07:12:45.837Z,26.38
2023-03-02T07:15:14.658Z,26.75
2023-03-02T07:17:44.238Z,26.73
2023-03-02T07:20:14.410Z,26.85
2023-03-02T07:22:41.572Z,25.35
2023-03-02T07:25:10.015Z,27.25
2023-03-02T07:27:37.694Z,25.15
2023-03-02T07:30:05.876Z,26.33
2023-03-02T07:32:33.212Z,26.33
2023-03-02T07:35:00.098Z,25.38
2023-03-02T07:37:27.087Z,26.73
2023-03-02T07:39:53.843Z,26.48
2023-03-02T07:42:21.238Z,25.05
2023-03-02T07:44:53.974Z,25.88
2023-03-02T07:47:20.899Z,26.02
2023-03-02T07:49:47.655Z,26.75
2023-03-02T07:52:14.684Z,26.10
2023-03-02T07:54:41.423Z,25.15
2023-03-02T07:57:08.335Z,25.65
2023-03-02T07:59:35.072Z,25.92
2023-03-02T08:02:02.234Z,25.77
2023-03-02T08:04:29.037Z,26.23
2023-03-02T08:06:56.038Z,25.30
2023-03-02T08:09:22.819Z,25.40
2023-03-02T08:11:49.933Z,27.92
2023-03-02T08:14:16.913Z,27.25
2023-03-02T08:16:44.559Z,26.13
2023-03-02T08:19:11.687Z,26.52
2023-03-02T08:21:38.716Z,26.58
2023-03-02T08:24:06.371Z,24.55
2023-03-02T08:26:33.345Z,24.65
2023-03-02T08:29:00.170Z,25.15
2023-03-02T08:31:27.599Z,26.15
2023-03-02T08:33:54.494Z,24.73
2023-03-02T08:36:21.817Z,23.92
2023-03-02T08:38:49.396Z,25.65
2023-03-02T08:41:19.848Z,25.20
2023-03-02T08:43:47.248Z,25.77
2023-03-02T08:46:17.596Z,25.48
2023-03-02T08:48:45.261Z,24.58
2023-03-02T08:51:15.374Z,25.63
2023-03-02T08:53:45.638Z,24.35
2023-03-02T08:56:17.065Z,24.92
2023-03-02T08:58:43.925Z,24.02
2023-03-02T09:01:22.437Z,25.25
2023-03-02T09:03:49.363Z,23.70
2023-03-02T09:06:16.601Z,25.40
2023-03-02T09:08:43.828Z,24.73
2023-03-02T09:11:10.815Z,24.73
2023-03-02T09:13:38.176Z,27.00
2023-03-02T09:16:05.732Z,24.75
2023-03-02T09:18:32.735Z,25.20
2023-03-02T09:21:00.081Z,25.38
2023-03-02T09:23:29.890Z,25.55
2023-03-02T09:25:58.735Z,24.23
2023-03-02T09:28:25.510Z,25.55
2023-03-02T09:30:54.127Z,26.50
2023-03-02T09:33:21.813Z,26.15
2023-03-02T09:35:50.341Z,25.73
2023-03-02T09:38:18.803Z,25.00
2023-03-02T09:41:13.710Z,25.63
2023-03-02T09:43:49.058Z,25.30
2023-03-02T09:46:32.588Z,26.08
2023-03-02T09:49:14.658Z,25.52
2023-03-02T09:52:09.652Z,29.30
2023-03-02T09:54:38.017Z,29.20
2023-03-02T09:57:20.907Z,26.10
2023-03-02T09:59:54.160Z,30.45
2023-03-02T10:02:23.754Z,29.35
2023-03-02T10:04:54.302Z,23.15
2023-03-02T10:07:36.768Z,24.30
2023-03-02T10:10:26.422Z,26.38
2023-03-02T10:13:18.163Z,24.15
2023-03-02T10:15:47.994Z,24.17
2023-03-02T10:18:35.351Z,27.75
2023-03-02T10:21:21.611Z,26.40
2023-03-02T10:24:13.639Z,26.42
2023-03-02T10:26:46.593Z,25.50
2023-03-02T10:29:40.069Z,25.77
2023-03-02T10:32:24.182Z,24.63
2023-03-02T10:34:53.560Z,23.85
2023-03-02T10:37:25.197Z,26.58
2023-03-02T10:39:52.977Z,24.95
2023-03-02T10:42:27.308Z,25.63
2023-03-02T10:44:59.108Z,26.02
2023-03-02T10:47:28.890Z,25.25
2023-03-02T10:49:57.732Z,25.63
2023-03-02T10:52:27.699Z,26.92
2023-03-02T10:55:05.946Z,25.95
2023-03-02T10:57:56.746Z,28.35
2023-03-02T11:00:26.415Z,27.08
2023-03-02T11:02:59.563Z,28.27
2023-03-02T11:05:31.128Z,27.48
2023-03-02T11:08:05.101Z,26.08
2023-03-02T11:10:37.011Z,27.80
2023-03-02T11:13:18.202Z,29.30
2023-03-02T11:15:48.255Z,26.73
2023-03-02T11:18:42.116Z,29.50
2023-03-02T11:21:17.039Z,26.85
2023-03-02T11:24:05.570Z,25.52
2023-03-02T11:26:50.207Z,27.88
2023-03-02T11:29:39.981Z,29.10
2023-03-02T11:32:37.370Z,27.65
2023-03-02T11:35:13.740Z,27.30
2023-03-02T11:37:49.781Z,26.13
2023-03-02T11:40:34.406Z,27.23
2023-03-02T11:43:04.903Z,26.13
2023-03-02T11:45:36.729Z,26.52
2023-03-02T11:48:22.753Z,25.70
2023-03-02T11:51:11.901Z,26.48
2023-03-02T11:54:03.994Z,26.52
2023-03-02T11:56:36.787Z,25.52
2023-03-02T11:59:14.962Z,26.60
2023-03-02T12:01:45.179Z,26.75
2023-03-02T12:04:34.151Z,27.88
2023-03-02T12:07:04.064Z,27.23
2023-03-02T12:09:37.186Z,27.33
2023-03-02T12:12:19.406Z,27.02
2023-03-02T12:14:46.356Z,26.75
2023-03-02T12:17:25.612Z,28.23
2023-03-02T12:20:08.109Z,28.67
2023-03-02T12:22:37.937Z,27.08
2023-03-02T12:25:20.032Z,28.27
2023-03-02T12:27:49.648Z,27.58
2023-03-02T12:30:23.851Z,30.17
2023-03-02T12:33:12.798Z,26.40
2023-03-02T12:35:40.093Z,29.95
2023-03-02T12:38:29.060Z,28.80
2023-03-02T12:41:25.164Z,27.52
2023-03-02T12:44:13.779Z,28.80
2023-03-02T12:46:45.706Z,28.70
2023-03-02T12:49:43.389Z,32.25
2023-03-02T12:52:31.643Z,32.97
2023-03-02T12:55:16.434Z,29.73
2023-03-02T12:57:51.755Z,30.33
2023-03-02T13:00:22.089Z,31.42
2023-03-02T13:02:51.568Z,30.38
2023-03-02T13:05:21.450Z,27.63
2023-03-02T13:08:01.624Z,27.52
2023-03-02T13:10:40.438Z,27.05
2023-03-02T13:13:27.039Z,28.45
2023-03-02T13:15:59.179Z,26.42
2023-03-02T13:18:31.956Z,26.55
2023-03-02T13:21:01.081Z,26.33
2023-03-02T13:23:29.724Z,25.67
2023-03-02T13:26:02.379Z,26.30
2023-03-02T13:28:38.437Z,25.60
2023-03-02T13:31:16.710Z,27.52
2023-03-02T13:33:46.174Z,26.45
2023-03-02T13:36:40.273Z,26.80
2023-03-02T13:39:17.825Z,27.10
2023-03-02T13:41:59.382Z,24.48
2023-03-02T13:44:34.434Z,26.35
2023-03-02T13:47:02.497Z,26.05
2023-03-02T13:49:35.369Z,26.58
2023-03-02T13:52:16.216Z,30.27
2023-03-02T13:54:45.613Z,27.65
2023-03-02T13:57:18.268Z,26.23
2023-03-02T13:59:45.357Z,27.50
2023-03-02T14:02:28.080Z,27.02
2023-03-02T14:04:55.829Z,26.70
2023-03-02T14:07:22.890Z,26.83
2023-03-02T14:09:49.646Z,25.95
2023-03-02T14:12:25.407Z,26.60
2023-03-02T14:14:54.436Z,25.23
2023-03-02T14:17:24.398Z,24.10
2023-03-02T14:19:55.372Z,25.80
2023-03-02T14:22:25.010Z,25.33
2023-03-02T14:24:51.848Z,25.55
2023-03-02T14:27:19.220Z,27.40
2023-03-02T14:29:46.966Z,25.40
2023-03-02T14:32:15.688Z,25.88
2023-03-02T14:34:42.864Z,26.92
2023-03-02T14:37:15.551Z,25.67
2023-03-02T14:39:56.866Z,25.48
2023-03-02T14:42:24.114Z,27.02
2023-03-02T14:44:51.783Z,25.92
2023-03-02T14:47:27.718Z,25.85
2023-03-02T14:49:55.330Z,25.10
2023-03-02T14:52:29.724Z,26.00
2023-03-02T14:55:01.459Z,26.45
2023-03-02T14:57:33.624Z,28.30
2023-03-02T15:00:00.563Z,26.67
2023-03-02T15:02:28.144Z,29.10
2023-03-02T15:04:57.244Z,26.63
2023-03-02T15:07:26.132Z,28.52
2023-03-02T15:09:52.987Z,25.70
2023-03-02T15:12:21.957Z,27.80
2023-03-02T15:14:49.007Z,26.90
2023-03-02T15:17:15.931Z,26.65
2023-03-02T15:19:42.675Z,27.77
2023-03-02T15:22:09.540Z,27.48
2023-03-02T15:24:36.298Z,27.25
2023-03-02T15:27:03.325Z,26.88
2023-03-02T15:29:30.369Z,27.80
2023-03-02T15:31:57.305Z,27.52
2023-03-02T15:34:24.186Z,28.42
2023-03-02T15:36:50.962Z,29.90
2023-03-02T15:39:17.804Z,29.48
2023-03-02T15:41:45.066Z,30.27
2023-03-02T15:44:23.800Z,26.33
2023-03-02T15:46:53.345Z,24.25
2023-03-02T15:49:22.951Z,27.80
2023-03-02T15:51:51.954Z,27.98
2023-03-02T15:54:19.481Z,27.45
2023-03-02T15:56:51.857Z,26.70
2023-03-02T15:59:27.352Z,25.48
2023-03-02T16:01:54.811Z,27.08
2023-03-02T16:04:25.751Z,27.98
2023-03-02T16:06:52.778Z,26.65
2023-03-02T16:09:19.597Z,26.23
2023-03-02T16:11:47.984Z,26.02
2023-03-02T16:14:15.798Z,28.48
2023-03-02T16:16:44.023Z,31.63
2023-03-02T16:19:13.378Z,28.48
2023-03-02T16:21:40.373Z,27.13
2023-03-02T16:24:07.962Z,27.40
2023-03-02T16:26:37.507Z,28.17
2023-03-02T16:29:08.029Z,27.40
2023-03-02T16:31:37.844Z,28.10
2023-03-02T16:34:08.892Z,27.73
2023-03-02T16:36:37.829Z,27.90
2023-03-02T16:39:06.612Z,29.38
2023-03-02T16:41:33.796Z,28.48
2023-03-02T16:44:01.833Z,29.25
2023-03-02T16:46:31.818Z,28.83
2023-03-02T16:48:58.874Z,28.23
2023-03-02T16:51:25.908Z,31.42
2023-03-02T16:53:52.818Z,27.90
2023-03-02T16:56:19.848Z,28.80
2023-03-02T16:58:47.103Z,27.40
2023-03-02T17:01:20.131Z,30.92
2023-03-02T17:03:49.246Z,32.78
2023-03-02T17:06:17.778Z,31.15
2023-03-02T17:08:44.735Z,32.50
2023-03-02T17:11:11.665Z,33.05
2023-03-02T17:13:38.581Z,31.45
2023-03-02T17:16:05.684Z,33.05
2023-03-02T17:18:32.849Z,32.80
2023-03-02T17:21:00.697Z,33.47
2023-03-02T17:23:28.203Z,38.00
2023-03-02T17:25:56.150Z,77.70
2023-03-02T17:28:23.788Z,58.55
2023-03-02T17:30:51.047Z,61.25
2023-03-02T17:33:18.264Z,48.50
2023-03-02T17:35:46.212Z,36.25
2023-03-02T17:38:14.398Z,35.53
2023-03-02T17:40:41.882Z,38.17
2023-03-02T17:43:08.806Z,37.55
2023-03-02T17:45:35.893Z,36.72
2023-03-02T17:48:02.961Z,34.45
2023-03-02T17:50:31.855Z,34.83
2023-03-02T17:52:59.786Z,37.60
2023-03-02T17:55:27.641Z,35.47
2023-03-02T17:57:54.734Z,33.55
2023-03-02T18:00:25.780Z,31.33
2023-03-02T18:02:53.527Z,30.27
2023-03-02T18:05:21.545Z,32.60
2023-03-02T18:07:48.581Z,31.85
2023-03-02T18:10:15.693Z,31.83
2023-03-02T18:12:42.550Z,32.78
2023-03-02T18:15:10.062Z,30.77
2023-03-02T18:17:37.005Z,33.58
2023-03-02T18:20:04.396Z,32.55
2023-03-02T18:22:31.323Z,32.00
2023-03-02T18:24:58.220Z,33.47
2023-03-02T18:27:26.259Z,37.97
2023-03-02T18:29:53.070Z,35.40
2023-03-02T18:32:21.099Z,36.38
2023-03-02T18:34:48.044Z,39.33
2023-03-02T18:37:15.123Z,39.55
2023-03-02T18:39:41.934Z,42.08
2023-03-02T18:42:09.506Z,38.03
2023-03-02T18:44:37.332Z,38.42
2023-03-02T18:47:04.475Z,42.10
2023-03-02T18:49:31.580Z,41.47
2023-03-02T18:51:59.704Z,42.00
2023-03-02T18:54:26.653Z,41.65
2023-03-02T18:56:53.665Z,43.17
2023-03-02T18:59:20.523Z,44.10
2023-03-02T19:01:47.455Z,47.40
2023-03-02T19:04:15.139Z,46.85
2023-03-02T19:06:42.775Z,47.75
2023-03-02T19:09:10.414Z,54.40
2023-03-02T19:11:37.479Z,49.03
2023-03-02T19:14:04.464Z,48.58
2023-03-02T19:16:31.672Z,48.50
2023-03-02T19:18:58.590Z,51.15
2023-03-02T19:21:25.471Z,47.70
2023-03-02T19:23:52.320Z,47.33
2023-03-02T19:26:19.178Z,45.33
2023-03-02T19:28:46.132Z,51.38
2023-03-02T19:31:13.632Z,51.88
2023-03-02T19:33:42.449Z,53.58
2023-03-02T19:36:10.041Z,51.35
2023-03-02T19:38:41.426Z,52.80
2023-03-02T19:41:17.275Z,57.15
2023-03-02T19:43:45.868Z,53.42
2023-03-02T19:46:14.454Z,50.97
2023-03-02T19:48:42.095Z,50.83
2023-03-02T19:51:09.352Z,50.17
2023-03-02T19:53:38.440Z,47.90
2023-03-02T19:56:08.337Z,44.83
2023-03-02T19:58:36.631Z,45.70
2023-03-02T20:01:04.154Z,45.47
2023-03-02T20:03:31.504Z,44.15
2023-03-02T20:05:59.603Z,44.17
2023-03-02T20:08:26.685Z,47.30
2023-03-02T20:10:53.645Z,49.38
2023-03-02T20:13:20.698Z,54.78
2023-03-02T20:15:48.292Z,54.42
2023-03-02T20:18:18.878Z,51.95
2023-03-02T20:20:47.473Z,51.00
2023-03-02T20:23:14.739Z,49.85
2023-03-02T20:25:42.164Z,47.45
2023-03-02T20:28:11.903Z,51.22
2023-03-02T20:30:45.069Z,52.92
2023-03-02T20:33:13.259Z,52.30
2023-03-02T20:35:43.729Z,50.92
2023-03-02T20:38:16.820Z,50.05
2023-03-02T20:40:44.219Z,51.60
2023-03-02T20:43:11.328Z,50.63
2023-03-02T20:45:38.685Z,51.70
2023-03-02T20:48:06.730Z,49.85
2023-03-02T20:50:34.986Z,49.58
2023-03-02T20:53:02.288Z,49.25
2023-03-02T20:55:29.750Z,47.47
2023-03-02T20:57:57.091Z,46.25
2023-03-02T21:00:27.574Z,43.53
2023-03-02T21:02:54.869Z,43.92
2023-03-02T21:05:22.220Z,44.75
2023-03-02T21:07:49.618Z,44.70
2023-03-02T21:10:26.917Z,44.70
2023-03-02T21:12:54.171Z,42.78
2023-03-02T21:15:22.794Z,42.17
2023-03-02T21:17:50.821Z,41.78
2023-03-02T21:20:18.366Z,43.83
2023-03-02T21:22:46.263Z,42.70
2023-03-02T21:25:13.596Z,46.60
2023-03-02T21:27:41.105Z,44.42
2023-03-02T21:30:22.366Z,45.80
2023-03-02T21:32:49.348Z,44.00
2023-03-02T21:35:21.905Z,45.88
2023-03-02T21:37:51.325Z,44.30
2023-03-02T21:40:25.389Z,45.20
2023-03-02T21:42:52.225Z,42.28
2023-03-02T21:45:19.691Z,45.83
2023-03-02T21:47:46.756Z,42.40
2023-03-02T21:50:18.865Z,47.15
2023-03-02T21:52:45.856Z,51.30
2023-03-02T21:55:13.572Z,46.28
2023-03-02T21:57:41.170Z,46.13
2023-03-02T22:00:10.018Z,43.70
2023-03-02T22:02:37.741Z,45.92
2023-03-02T22:05:04.971Z,46.65
2023-03-02T22:07:31.960Z,43.30
2023-03-02T22:09:58.976Z,43.10
2023-03-02T22:12:26.467Z,43.05
2023-03-02T22:14:53.984Z,46.22
2023-03-02T22:17:24.670Z,47.90
2023-03-02T22:19:52.488Z,50.88
2023-03-02T22:22:24.057Z,55.70
2023-03-02T22:24:54.351Z,54.80
2023-03-02T22:27:24.199Z,57.67
2023-03-02T22:29:53.373Z,58.45
2023-03-02T22:32:29.201Z,55.95
2023-03-02T22:35:01.532Z,56.08
2023-03-02T22:37:33.089Z,54.40
2023-03-02T22:40:16.258Z,54.45
2023-03-02T22:42:43.082Z,52.88
2023-03-02T22:45:22.278Z,54.22
2023-03-02T22:47:51.569Z,55.70
2023-03-02T22:50:23.224Z,56.58
2023-03-02T22:52:51.472Z,52.55
2023-03-02T22:55:30.156Z,53.33
2023-03-02T22:57:57.476Z,50.42
2023-03-02T23:00:38.654Z,49.92
2023-03-02T23:03:20.600Z,50.72
2023-03-02T23:05:51.757Z,48.47
2023-03-02T23:08:28.608Z,50.42
2023-03-02T23:10:57.951Z,49.50
2023-03-02T23:13:31.115Z,46.65
2023-03-02T23:15:58.469Z,45.50
2023-03-02T23:18:29.397Z,46.33
2023-03-02T23:20:56.709Z,46.28
2023-03-02T23:23:24.644Z,47.33
2023-03-02T23:25:51.530Z,49.53
2023-03-02T23:28:18.413Z,48.83
2023-03-02T23:30:45.477Z,47.42
2023-03-02T23:33:12.406Z,47.55
2023-03-02T23:35:39.950Z,49.45
2023-03-02T23:38:06.881Z,47.83
2023-03-02T23:40:33.877Z,45.05
2023-03-02T23:43:00.888Z,47.17
2023-03-02T23:45:28.230Z,46.42
2023-03-02T23:47:55.153Z,46.50
2023-03-02T23:50:21.987Z,44.55
2023-03-02T23:52:49.312Z,45.13
2023-03-02T23:55:16.577Z,43.45
2023-03-02T23:57:43.723Z,44.75
